createdAt,value
2018-09-05T00:00:35.870Z,19.78
2018-09-05T00:01:35.896Z,19.64
2018-09-05T00:02:35.931Z,19.75
2018-09-05T00:03:56.975Z,19.75
2018-09-05T00:04:35.990Z,19.70
2018-09-05T00:05:36.020Z,19.81
2018-09-05T00:06:36.046Z,19.74
2018-09-05T00:07:36.062Z,19.66
2018-09-05T00:08:36.091Z,19.66
2018-09-05T00:09:57.148Z,19.72
2018-09-05T00:10:36.160Z,19.79
2018-09-05T00:11:36.177Z,19.72
2018-09-05T00:12:36.211Z,19.72
2018-09-05T00:13:36.234Z,19.70
2018-09-05T00:14:36.266Z,19.77
2018-09-05T00:15:57.320Z,19.75
2018-09-05T00:16:36.324Z,19.72
2018-09-05T00:17:36.356Z,19.70
2018-09-05T00:18:36.404Z,19.63
2018-09-05T00:19:36.415Z,19.67
2018-09-05T00:20:36.441Z,19.74
2018-09-05T00:21:57.480Z,19.72
2018-09-05T00:22:36.521Z,19.64
2018-09-05T00:23:36.530Z,19.66
2018-09-05T00:24:36.548Z,19.60
2018-09-05T00:25:36.592Z,19.59
2018-09-05T00:26:36.615Z,19.59
2018-09-05T00:27:57.658Z,19.52
2018-09-05T00:28:36.670Z,19.53
2018-09-05T00:29:36.695Z,19.52
2018-09-05T00:30:36.724Z,19.47
2018-09-05T00:31:36.825Z,19.52
2018-09-05T00:32:36.774Z,19.52
2018-09-05T00:33:57.827Z,19.53
2018-09-05T00:34:36.829Z,19.48
2018-09-05T00:35:36.876Z,19.49
2018-09-05T00:36:36.904Z,19.56
2018-09-05T00:37:36.914Z,19.55
2018-09-05T00:38:36.965Z,19.55
2018-09-05T00:39:57.988Z,19.53
2018-09-05T00:40:36.997Z,19.55
2018-09-05T00:41:37.029Z,19.53
2018-09-05T00:42:37.070Z,19.49
2018-09-05T00:43:37.094Z,19.47
2018-09-05T00:44:37.131Z,19.48
2018-09-05T00:45:58.158Z,19.55
2018-09-05T00:46:37.177Z,19.53
2018-09-05T00:47:37.188Z,19.53
2018-09-05T00:48:37.228Z,19.56
2018-09-05T00:49:37.266Z,19.49
2018-09-05T00:50:37.284Z,19.53
2018-09-05T00:51:58.342Z,19.47
2018-09-05T00:52:37.332Z,19.49
2018-09-05T00:53:37.449Z,19.47
2018-09-05T00:54:37.398Z,19.53
2018-09-05T00:55:37.436Z,19.55
2018-09-05T00:56:37.457Z,19.57
2018-09-05T00:57:58.503Z,19.47
2018-09-05T00:58:37.507Z,19.56
2018-09-05T00:59:37.535Z,19.56
2018-09-05T01:00:37.559Z,19.55
2018-09-05T01:01:37.589Z,19.49
2018-09-05T01:02:37.624Z,19.52
2018-09-05T01:03:58.687Z,19.57
2018-09-05T01:04:37.675Z,19.52
2018-09-05T01:05:37.698Z,19.44
2018-09-05T01:06:37.727Z,19.45
2018-09-05T01:07:37.761Z,19.41
2018-09-05T01:08:37.787Z,19.44
2018-09-05T01:09:58.831Z,19.41
2018-09-05T01:10:37.851Z,19.41
2018-09-05T01:11:37.870Z,19.34
2018-09-05T01:12:37.900Z,19.26
2018-09-05T01:13:37.926Z,19.35
2018-09-05T01:14:37.960Z,19.26
2018-09-05T01:15:59.005Z,19.27
2018-09-05T01:16:38.010Z,19.30
2018-09-05T01:17:38.045Z,19.30
2018-09-05T01:18:38.075Z,19.24
2018-09-05T01:19:38.097Z,19.24
2018-09-05T01:20:38.123Z,19.24
2018-09-05T01:21:59.178Z,19.19
2018-09-05T01:22:38.197Z,19.12
2018-09-05T01:23:38.201Z,19.20
2018-09-05T01:24:38.233Z,19.22
2018-09-05T01:25:38.275Z,19.17
2018-09-05T01:26:38.289Z,19.19
2018-09-05T01:27:59.338Z,19.24
2018-09-05T01:28:38.345Z,19.30
2018-09-05T01:29:38.375Z,19.29
2018-09-05T01:30:38.403Z,19.24
2018-09-05T01:31:38.428Z,19.34
2018-09-05T01:32:38.462Z,19.27
2018-09-05T01:33:59.506Z,19.32
2018-09-05T01:34:38.519Z,19.29
2018-09-05T01:35:38.554Z,19.26
2018-09-05T01:36:38.575Z,19.19
2018-09-05T01:37:38.603Z,19.19
2018-09-05T01:38:38.625Z,19.04
2018-09-05T01:39:59.679Z,19.05
2018-09-05T01:40:38.690Z,19.07
2018-09-05T01:41:38.706Z,19.17
2018-09-05T01:42:38.745Z,19.00
2018-09-05T01:43:38.787Z,19.01
2018-09-05T01:44:38.802Z,19.01
2018-09-05T01:45:59.846Z,18.98
2018-09-05T01:46:38.900Z,19.00
2018-09-05T01:47:38.883Z,19.00
2018-09-05T01:48:38.920Z,18.98
2018-09-05T01:49:38.932Z,18.86
2018-09-05T01:50:38.967Z,18.89
2018-09-05T01:52:00.013Z,18.92
2018-09-05T01:52:39.020Z,18.94
2018-09-05T01:53:39.049Z,18.91
2018-09-05T01:54:39.077Z,19.00
2018-09-05T01:55:39.150Z,18.91
2018-09-05T01:56:39.150Z,18.85
2018-09-05T01:58:00.185Z,18.94
2018-09-05T01:58:39.189Z,18.97
2018-09-05T01:59:39.206Z,18.97
2018-09-05T02:00:39.245Z,19.11
2018-09-05T02:01:39.286Z,19.00
2018-09-05T02:02:39.301Z,18.97
2018-09-05T02:04:00.348Z,18.88
2018-09-05T02:04:39.359Z,18.92
2018-09-05T02:05:39.380Z,19.04
2018-09-05T02:06:39.429Z,19.01
2018-09-05T02:07:39.441Z,19.00
2018-09-05T02:08:39.470Z,19.01
2018-09-05T02:10:00.524Z,19.04
2018-09-05T02:10:39.522Z,18.92
2018-09-05T02:11:39.559Z,18.88
2018-09-05T02:12:39.582Z,18.86
2018-09-05T02:13:39.610Z,18.81
2018-09-05T02:14:39.632Z,18.81
2018-09-05T02:16:00.689Z,18.81
2018-09-05T02:16:39.696Z,18.81
2018-09-05T02:17:39.716Z,18.74
2018-09-05T02:18:39.755Z,18.67
2018-09-05T02:19:39.790Z,18.71
2018-09-05T02:20:39.798Z,18.74
2018-09-05T02:22:00.873Z,18.67
2018-09-05T02:22:39.854Z,18.71
2018-09-05T02:23:39.890Z,18.68
2018-09-05T02:24:39.918Z,18.71
2018-09-05T02:25:39.954Z,18.73
2018-09-05T02:26:39.983Z,18.71
2018-09-05T02:28:01.045Z,18.76
2018-09-05T02:28:40.030Z,18.74
2018-09-05T02:29:40.057Z,18.73
2018-09-05T02:30:40.086Z,18.68
2018-09-05T02:31:40.120Z,18.74
2018-09-05T02:32:40.139Z,18.70
2018-09-05T02:34:01.184Z,18.79
2018-09-05T02:34:40.213Z,18.71
2018-09-05T02:35:40.216Z,18.71
2018-09-05T02:36:40.254Z,18.64
2018-09-05T02:37:40.285Z,18.70
2018-09-05T02:38:40.300Z,18.70
2018-09-05T02:40:01.345Z,18.64
2018-09-05T02:40:40.395Z,18.60
2018-09-05T02:41:40.392Z,18.71
2018-09-05T02:42:40.417Z,18.70
2018-09-05T02:43:40.440Z,18.63
2018-09-05T02:44:40.470Z,18.66
2018-09-05T02:46:01.540Z,18.71
2018-09-05T02:46:40.544Z,18.74
2018-09-05T02:47:40.554Z,18.76
2018-09-05T02:48:40.581Z,18.73
2018-09-05T02:49:40.613Z,18.68
2018-09-05T02:50:40.644Z,18.73
2018-09-05T02:52:01.681Z,18.71
2018-09-05T02:52:40.703Z,18.68
2018-09-05T02:53:40.718Z,18.78
2018-09-05T02:54:40.748Z,18.74
2018-09-05T02:55:40.774Z,18.68
2018-09-05T02:56:40.803Z,18.66
2018-09-05T02:58:01.889Z,18.71
2018-09-05T02:58:40.861Z,18.78
2018-09-05T02:59:40.905Z,18.83
2018-09-05T03:00:40.920Z,18.78
2018-09-05T03:01:40.942Z,18.74
2018-09-05T03:02:40.977Z,18.74
2018-09-05T03:04:02.018Z,18.70
2018-09-05T03:04:41.028Z,18.70
2018-09-05T03:05:41.052Z,18.70
2018-09-05T03:06:41.113Z,18.68
2018-09-05T03:07:41.122Z,18.70
2018-09-05T03:08:41.246Z,18.64
2018-09-05T03:10:02.196Z,18.68
2018-09-05T03:10:41.191Z,18.70
2018-09-05T03:11:41.228Z,18.76
2018-09-05T03:12:41.256Z,18.63
2018-09-05T03:13:41.277Z,18.71
2018-09-05T03:14:41.310Z,18.70
2018-09-05T03:16:02.351Z,18.71
2018-09-05T03:16:41.368Z,18.71
2018-09-05T03:17:41.404Z,18.61
2018-09-05T03:18:41.414Z,18.66
2018-09-05T03:19:41.526Z,18.66
2018-09-05T03:20:41.480Z,18.60
2018-09-05T03:22:02.519Z,18.66
2018-09-05T03:22:41.532Z,18.66
2018-09-05T03:23:41.557Z,18.61
2018-09-05T03:24:41.581Z,18.63
2018-09-05T03:25:41.636Z,18.76
2018-09-05T03:26:41.641Z,18.63
2018-09-05T03:28:02.720Z,18.70
2018-09-05T03:28:41.692Z,18.78
2018-09-05T03:29:41.724Z,18.73
2018-09-05T03:30:41.757Z,18.78
2018-09-05T03:31:41.772Z,18.64
2018-09-05T03:32:41.896Z,18.66
2018-09-05T03:34:02.851Z,18.76
2018-09-05T03:34:41.870Z,18.78
2018-09-05T03:35:41.898Z,18.78
2018-09-05T03:36:41.933Z,18.83
2018-09-05T03:37:41.952Z,18.78
2018-09-05T03:38:41.970Z,18.79
2018-09-05T03:40:03.019Z,18.76
2018-09-05T03:40:42.036Z,18.79
2018-09-05T03:41:42.059Z,18.73
2018-09-05T03:42:42.086Z,18.63
2018-09-05T03:43:42.105Z,18.66
2018-09-05T03:44:42.140Z,18.78
2018-09-05T03:46:03.179Z,18.73
2018-09-05T03:46:42.195Z,18.74
2018-09-05T03:47:42.229Z,18.81
2018-09-05T03:48:42.251Z,18.71
2018-09-05T03:49:42.318Z,18.76
2018-09-05T03:50:42.315Z,18.67
2018-09-05T03:52:03.353Z,18.74
2018-09-05T03:52:42.370Z,18.78
2018-09-05T03:53:42.388Z,18.78
2018-09-05T03:54:42.424Z,18.76
2018-09-05T03:55:42.462Z,18.67
2018-09-05T03:56:42.486Z,18.68
2018-09-05T03:58:03.533Z,18.67
2018-09-05T03:58:42.529Z,18.71
2018-09-05T03:59:42.557Z,18.78
2018-09-05T04:00:42.591Z,18.76
2018-09-05T04:01:42.611Z,18.74
2018-09-05T04:02:42.640Z,18.74
2018-09-05T04:04:03.681Z,18.78
2018-09-05T04:04:42.702Z,18.82
2018-09-05T04:05:42.725Z,18.67
2018-09-05T04:06:42.750Z,18.78
2018-09-05T04:07:42.787Z,18.73
2018-09-05T04:08:42.808Z,18.82
2018-09-05T04:10:03.853Z,18.78
2018-09-05T04:10:42.944Z,18.78
2018-09-05T04:11:42.887Z,18.78
2018-09-05T04:12:42.924Z,18.82
2018-09-05T04:13:42.950Z,18.79
2018-09-05T04:14:42.972Z,18.79
2018-09-05T04:16:04.011Z,18.82
2018-09-05T04:16:43.026Z,18.86
2018-09-05T04:17:43.058Z,18.91
2018-09-05T04:18:43.085Z,18.82
2018-09-05T04:19:43.123Z,18.85
2018-09-05T04:20:43.143Z,18.83
2018-09-05T04:22:04.196Z,18.81
2018-09-05T04:22:43.196Z,18.81
2018-09-05T04:23:43.224Z,18.81
2018-09-05T04:24:43.249Z,18.92
2018-09-05T04:25:43.296Z,18.88
2018-09-05T04:26:43.310Z,18.88
2018-09-05T04:28:04.371Z,18.82
2018-09-05T04:28:43.376Z,18.83
2018-09-05T04:29:43.403Z,18.91
2018-09-05T04:30:43.450Z,18.89
2018-09-05T04:31:43.455Z,18.89
2018-09-05T04:32:43.483Z,18.86
2018-09-05T04:34:04.529Z,18.86
2018-09-05T04:34:43.520Z,18.85
2018-09-05T04:35:43.559Z,18.81
2018-09-05T04:36:43.582Z,18.85
2018-09-05T04:37:43.621Z,18.83
2018-09-05T04:38:43.643Z,18.81
2018-09-05T04:40:04.687Z,18.85
2018-09-05T04:40:43.696Z,18.92
2018-09-05T04:41:43.722Z,18.97
2018-09-05T04:42:43.750Z,18.88
2018-09-05T04:43:43.785Z,18.91
2018-09-05T04:44:43.799Z,18.83
2018-09-05T04:46:04.858Z,18.89
2018-09-05T04:46:43.860Z,18.91
2018-09-05T04:47:43.884Z,18.85
2018-09-05T04:48:43.919Z,18.81
2018-09-05T04:49:43.944Z,18.91
2018-09-05T04:50:43.968Z,18.81
2018-09-05T04:52:05.087Z,18.82
2018-09-05T04:52:44.116Z,18.78
2018-09-05T04:53:44.058Z,18.82
2018-09-05T04:54:44.087Z,18.86
2018-09-05T04:55:44.119Z,18.91
2018-09-05T04:56:44.162Z,18.85
2018-09-05T04:58:05.186Z,18.86
2018-09-05T04:58:44.196Z,18.81
2018-09-05T04:59:44.216Z,18.85
2018-09-05T05:00:44.263Z,18.81
2018-09-05T05:01:44.279Z,18.86
2018-09-05T05:02:44.304Z,18.82
2018-09-05T05:04:05.356Z,18.89
2018-09-05T05:04:44.365Z,18.83
2018-09-05T05:05:44.418Z,18.86
2018-09-05T05:06:44.415Z,18.86
2018-09-05T05:07:44.442Z,18.88
2018-09-05T05:08:44.519Z,18.81
2018-09-05T05:10:05.531Z,18.83
2018-09-05T05:10:44.547Z,18.88
2018-09-05T05:11:44.562Z,18.88
2018-09-05T05:12:44.674Z,18.91
2018-09-05T05:13:44.625Z,18.97
2018-09-05T05:14:44.641Z,18.88
2018-09-05T05:16:05.686Z,18.85
2018-09-05T05:16:44.699Z,18.86
2018-09-05T05:17:44.719Z,18.82
2018-09-05T05:18:44.750Z,18.89
2018-09-05T05:19:44.770Z,18.94
2018-09-05T05:20:44.805Z,18.83
2018-09-05T05:22:05.864Z,18.91
2018-09-05T05:22:44.867Z,18.86
2018-09-05T05:23:44.997Z,18.86
2018-09-05T05:24:44.916Z,18.88
2018-09-05T05:25:44.957Z,18.89
2018-09-05T05:26:44.977Z,18.86
2018-09-05T05:28:06.042Z,18.88
2018-09-05T05:28:45.024Z,18.89
2018-09-05T05:29:45.050Z,19.01
2018-09-05T05:30:45.085Z,18.89
2018-09-05T05:31:45.120Z,18.91
2018-09-05T05:32:45.344Z,18.94
2018-09-05T05:34:06.193Z,18.94
2018-09-05T05:34:45.265Z,18.88
2018-09-05T05:35:45.268Z,19.01
2018-09-05T05:36:45.239Z,19.00
2018-09-05T05:37:45.274Z,18.97
2018-09-05T05:38:45.313Z,18.98
2018-09-05T05:40:06.390Z,18.91
2018-09-05T05:40:45.366Z,18.98
2018-09-05T05:41:45.406Z,18.89
2018-09-05T05:42:45.409Z,18.94
2018-09-05T05:43:45.534Z,19.00
2018-09-05T05:44:45.467Z,18.94
2018-09-05T05:46:06.515Z,18.91
2018-09-05T05:46:45.700Z,18.89
2018-09-05T05:47:45.554Z,18.96
2018-09-05T05:48:45.586Z,19.01
2018-09-05T05:49:45.614Z,19.01
2018-09-05T05:50:45.960Z,19.09
2018-09-05T05:52:06.694Z,19.15
2018-09-05T05:52:45.694Z,19.09
2018-09-05T05:53:45.725Z,19.05
2018-09-05T05:54:45.747Z,19.12
2018-09-05T05:55:45.933Z,19.15
2018-09-05T05:56:45.814Z,19.11
2018-09-05T05:58:06.851Z,19.05
2018-09-05T05:58:45.861Z,19.08
2018-09-05T05:59:45.879Z,18.97
2018-09-05T06:00:45.987Z,19.01
2018-09-05T06:01:45.980Z,19.08
2018-09-05T06:02:45.972Z,19.16
2018-09-05T06:04:07.008Z,19.11
2018-09-05T06:04:46.029Z,19.11
2018-09-05T06:05:46.060Z,19.17
2018-09-05T06:06:46.113Z,19.26
2018-09-05T06:07:46.115Z,19.24
2018-09-05T06:08:46.154Z,19.26
2018-09-05T06:10:07.185Z,19.23
2018-09-05T06:10:46.193Z,19.29
2018-09-05T06:11:46.218Z,19.32
2018-09-05T06:12:46.241Z,19.32
2018-09-05T06:13:46.273Z,19.27
2018-09-05T06:14:46.319Z,19.27
2018-09-05T06:16:07.350Z,19.29
2018-09-05T06:16:46.357Z,19.29
2018-09-05T06:17:46.384Z,19.26
2018-09-05T06:18:46.463Z,19.24
2018-09-05T06:19:46.522Z,19.24
2018-09-05T06:20:46.465Z,19.29
2018-09-05T06:22:07.518Z,19.26
2018-09-05T06:22:46.545Z,19.27
2018-09-05T06:23:46.680Z,19.26
2018-09-05T06:24:46.595Z,19.29
2018-09-05T06:25:46.729Z,19.23
2018-09-05T06:26:46.643Z,19.26
2018-09-05T06:28:07.687Z,19.37
2018-09-05T06:28:46.695Z,19.24
2018-09-05T06:29:46.711Z,19.32
2018-09-05T06:30:46.832Z,19.24
2018-09-05T06:31:46.774Z,19.26
2018-09-05T06:32:46.829Z,19.30
2018-09-05T06:34:07.871Z,19.29
2018-09-05T06:34:46.938Z,19.34
2018-09-05T06:35:46.890Z,19.41
2018-09-05T06:36:46.943Z,19.39
2018-09-05T06:37:46.953Z,19.48
2018-09-05T06:38:46.970Z,19.42
2018-09-05T06:40:08.012Z,19.56
2018-09-05T06:40:47.039Z,19.57
2018-09-05T06:41:47.050Z,19.53
2018-09-05T06:42:47.096Z,19.53
2018-09-05T06:43:47.112Z,19.53
2018-09-05T06:44:47.126Z,19.48
2018-09-05T06:46:08.183Z,19.55
2018-09-05T06:46:47.197Z,19.53
2018-09-05T06:47:47.276Z,19.49
2018-09-05T06:48:47.288Z,19.56
2018-09-05T06:49:47.273Z,19.55
2018-09-05T06:50:47.304Z,19.47
2018-09-05T06:52:08.339Z,19.52
2018-09-05T06:52:47.349Z,19.62
2018-09-05T06:53:47.389Z,19.59
2018-09-05T06:54:47.420Z,19.67
2018-09-05T06:55:47.443Z,19.62
2018-09-05T06:56:47.514Z,19.71
2018-09-05T06:58:08.528Z,19.64
2018-09-05T06:58:47.542Z,19.67
2018-09-05T06:59:47.572Z,19.70
2018-09-05T07:00:47.575Z,19.70
2018-09-05T07:01:47.610Z,19.64
2018-09-05T07:02:47.627Z,19.62
2018-09-05T07:04:08.683Z,19.62
2018-09-05T07:04:47.699Z,19.62
2018-09-05T07:05:47.719Z,19.60
2018-09-05T07:06:47.756Z,19.66
2018-09-05T07:07:47.778Z,19.71
2018-09-05T07:08:47.901Z,19.78
2018-09-05T07:10:08.859Z,19.79
2018-09-05T07:10:47.858Z,19.81
2018-09-05T07:11:47.895Z,19.81
2018-09-05T07:12:47.929Z,19.85
2018-09-05T07:13:47.937Z,19.85
2018-09-05T07:14:47.971Z,19.84
2018-09-05T07:16:09.036Z,19.85
2018-09-05T07:16:48.025Z,19.85
2018-09-05T07:17:48.050Z,19.87
2018-09-05T07:18:48.076Z,19.89
2018-09-05T07:19:48.124Z,19.96
2018-09-05T07:20:48.139Z,19.89
2018-09-05T07:22:09.228Z,20.00
2018-09-05T07:22:48.205Z,19.94
2018-09-05T07:23:48.227Z,20.00
2018-09-05T07:24:48.298Z,20.10
2018-09-05T07:25:48.272Z,19.97
2018-09-05T07:26:48.303Z,19.99
2018-09-05T07:28:09.369Z,20.00
2018-09-05T07:28:48.355Z,19.97
2018-09-05T07:29:48.392Z,20.11
2018-09-05T07:30:48.531Z,20.18
2018-09-05T07:31:48.442Z,20.17
2018-09-05T07:32:48.471Z,20.29
2018-09-05T07:34:09.519Z,20.32
2018-09-05T07:34:48.535Z,20.34
2018-09-05T07:35:48.552Z,20.33
2018-09-05T07:36:48.595Z,20.44
2018-09-05T07:37:48.606Z,20.40
2018-09-05T07:38:48.633Z,20.40
2018-09-05T07:40:09.701Z,20.39
2018-09-05T07:40:48.689Z,20.42
2018-09-05T07:41:48.753Z,20.32
2018-09-05T07:42:48.741Z,20.26
2018-09-05T07:43:48.798Z,20.40
2018-09-05T07:44:48.811Z,20.36
2018-09-05T07:46:09.852Z,20.42
2018-09-05T07:46:48.874Z,20.40
2018-09-05T07:47:48.913Z,20.44
2018-09-05T07:48:48.915Z,20.37
2018-09-05T07:49:48.953Z,20.58
2018-09-05T07:50:49.029Z,20.55
2018-09-05T07:52:10.020Z,20.67
2018-09-05T07:52:49.030Z,20.58
2018-09-05T07:53:49.054Z,20.68
2018-09-05T07:54:49.094Z,20.66
2018-09-05T07:55:49.131Z,20.68
2018-09-05T07:56:49.137Z,20.74
2018-09-05T07:58:10.203Z,20.74
2018-09-05T07:58:49.215Z,20.74
2018-09-05T07:59:49.228Z,20.73
2018-09-05T08:00:49.295Z,20.74
2018-09-05T08:01:49.284Z,20.67
2018-09-05T08:02:49.397Z,20.77
2018-09-05T08:04:10.350Z,20.95
2018-09-05T08:04:49.370Z,21.00
2018-09-05T08:05:49.401Z,21.10
2018-09-05T08:06:49.413Z,21.14
2018-09-05T08:07:49.468Z,21.23
2018-09-05T08:08:49.501Z,21.20
2018-09-05T08:10:10.542Z,21.32
2018-09-05T08:10:49.535Z,21.50
2018-09-05T08:11:49.609Z,21.63
2018-09-05T08:12:49.598Z,21.65
2018-09-05T08:13:49.635Z,21.78
2018-09-05T08:14:49.650Z,21.75
2018-09-05T08:16:10.692Z,21.70
2018-09-05T08:16:49.714Z,21.88
2018-09-05T08:17:49.740Z,21.89
2018-09-05T08:18:49.768Z,21.94
2018-09-05T08:19:49.779Z,22.01
2018-09-05T08:20:49.826Z,22.04
2018-09-05T08:22:10.866Z,22.01
2018-09-05T08:22:49.879Z,22.15
2018-09-05T08:23:49.898Z,22.07
2018-09-05T08:24:49.927Z,22.06
2018-09-05T08:25:49.968Z,22.07
2018-09-05T08:26:49.982Z,22.08
2018-09-05T08:28:11.044Z,22.14
2018-09-05T08:28:50.061Z,22.23
2018-09-05T08:29:50.064Z,22.25
2018-09-05T08:30:50.100Z,22.40
2018-09-05T08:31:50.124Z,22.73
2018-09-05T08:32:50.156Z,22.99
2018-09-05T08:34:11.203Z,23.16
2018-09-05T08:34:50.353Z,23.26
2018-09-05T08:35:50.486Z,23.49
2018-09-05T08:36:50.496Z,23.67
2018-09-05T08:37:50.428Z,23.77
2018-09-05T08:38:50.332Z,23.77
2018-09-05T08:40:11.383Z,23.95
2018-09-05T08:40:50.394Z,24.04
2018-09-05T08:41:50.460Z,24.26
2018-09-05T08:42:50.502Z,24.40
2018-09-05T08:43:50.573Z,24.24
2018-09-05T08:44:50.817Z,24.28
2018-09-05T08:46:11.710Z,24.29
2018-09-05T08:46:50.627Z,24.61
2018-09-05T08:47:50.673Z,24.82
2018-09-05T08:48:50.616Z,25.07
2018-09-05T08:49:50.647Z,24.78
2018-09-05T08:50:50.674Z,24.86
2018-09-05T08:52:11.718Z,25.03
2018-09-05T08:52:50.815Z,24.86
2018-09-05T08:53:50.753Z,24.97
2018-09-05T08:54:50.791Z,25.14
2018-09-05T08:55:50.885Z,25.21
2018-09-05T08:56:50.836Z,25.07
2018-09-05T08:58:11.912Z,24.85
2018-09-05T08:58:50.990Z,24.46
2018-09-05T08:59:50.931Z,24.38
2018-09-05T09:00:51.018Z,24.40
2018-09-05T09:01:50.983Z,24.00
2018-09-05T09:02:51.082Z,23.95
2018-09-05T09:04:12.063Z,23.76
2018-09-05T09:04:51.122Z,23.51
2018-09-05T09:05:51.090Z,23.52
2018-09-05T09:06:51.128Z,23.51
2018-09-05T09:07:51.163Z,23.59
2018-09-05T09:08:51.183Z,23.33
2018-09-05T09:10:12.228Z,23.54
2018-09-05T09:10:51.233Z,23.59
2018-09-05T09:11:52.068Z,23.69
2018-09-05T09:12:51.300Z,23.70
2018-09-05T09:13:51.345Z,23.84
2018-09-05T09:14:51.373Z,23.82
2018-09-05T09:16:12.410Z,23.79
2018-09-05T09:16:51.417Z,23.79
2018-09-05T09:17:51.469Z,23.86
2018-09-05T09:18:51.489Z,24.04
2018-09-05T09:19:51.505Z,24.21
2018-09-05T09:20:51.617Z,24.26
2018-09-05T09:22:12.582Z,24.16
2018-09-05T09:22:51.641Z,24.31
2018-09-05T09:23:51.623Z,24.34
2018-09-05T09:24:51.651Z,24.41
2018-09-05T09:25:51.698Z,24.50
2018-09-05T09:26:51.725Z,24.66
2018-09-05T09:28:12.785Z,24.71
2018-09-05T09:28:51.775Z,24.81
2018-09-05T09:29:51.800Z,24.86
2018-09-05T09:30:51.836Z,24.97
2018-09-05T09:31:51.858Z,25.00
2018-09-05T09:32:51.879Z,24.93
2018-09-05T09:34:12.941Z,25.11
2018-09-05T09:34:51.955Z,25.12
2018-09-05T09:35:51.971Z,25.03
2018-09-05T09:36:52.000Z,24.93
2018-09-05T09:37:52.018Z,24.61
2018-09-05T09:38:52.060Z,24.58
2018-09-05T09:40:13.120Z,24.55
2018-09-05T09:40:52.107Z,24.41
2018-09-05T09:41:52.140Z,24.58
2018-09-05T09:42:52.181Z,24.63
2018-09-05T09:43:52.203Z,24.88
2018-09-05T09:44:52.229Z,25.14
2018-09-05T09:46:13.274Z,25.39
2018-09-05T09:46:52.289Z,25.55
2018-09-05T09:47:52.315Z,25.73
2018-09-05T09:48:52.350Z,25.71
2018-09-05T09:49:52.394Z,25.88
2018-09-05T09:50:52.407Z,25.88
2018-09-05T09:52:13.451Z,26.30
2018-09-05T09:52:52.470Z,26.53
2018-09-05T09:53:52.502Z,26.81
2018-09-05T09:54:52.529Z,26.89
2018-09-05T09:55:52.572Z,27.01
2018-09-05T09:56:52.593Z,26.88
2018-09-05T09:58:13.629Z,26.64
2018-09-05T09:58:52.656Z,26.82
2018-09-05T09:59:52.681Z,26.93
2018-09-05T10:00:52.697Z,27.19
2018-09-05T10:01:52.727Z,27.64
2018-09-05T10:02:52.764Z,28.52
2018-09-05T10:04:13.813Z,28.28
2018-09-05T10:04:52.838Z,27.34
2018-09-05T10:05:52.865Z,26.45
2018-09-05T10:06:52.928Z,26.08
2018-09-05T10:07:52.923Z,26.37
2018-09-05T10:08:52.953Z,26.60
2018-09-05T10:10:14.272Z,26.88
2018-09-05T10:10:53.003Z,26.60
2018-09-05T10:11:53.046Z,26.49
2018-09-05T10:12:53.061Z,26.46
2018-09-05T10:13:53.096Z,26.31
2018-09-05T10:14:53.228Z,26.45
2018-09-05T10:16:14.167Z,26.88
2018-09-05T10:16:53.179Z,27.19
2018-09-05T10:17:53.218Z,27.43
2018-09-05T10:18:53.244Z,27.72
2018-09-05T10:19:53.269Z,27.88
2018-09-05T10:20:54.124Z,27.94
2018-09-05T10:22:14.350Z,27.93
2018-09-05T10:22:53.356Z,27.97
2018-09-05T10:23:53.396Z,27.93
2018-09-05T10:24:53.416Z,28.18
2018-09-05T10:25:53.467Z,28.59
2018-09-05T10:26:53.496Z,28.87
2018-09-05T10:28:14.529Z,28.60
2018-09-05T10:28:53.539Z,29.09
2018-09-05T10:29:53.654Z,29.71
2018-09-05T10:30:53.603Z,29.39
2018-09-05T10:31:53.659Z,29.24
2018-09-05T10:32:53.670Z,29.76
2018-09-05T10:34:14.733Z,30.17
2018-09-05T10:34:53.731Z,29.94
2018-09-05T10:35:53.756Z,30.38
2018-09-05T10:36:53.793Z,30.58
2018-09-05T10:37:53.817Z,31.20
2018-09-05T10:38:53.853Z,31.20
2018-09-05T10:40:14.916Z,30.63
2018-09-05T10:40:53.931Z,30.39
2018-09-05T10:41:53.942Z,30.24
2018-09-05T10:42:53.979Z,29.95
2018-09-05T10:43:54.000Z,30.05
2018-09-05T10:44:54.042Z,30.65
2018-09-05T10:46:15.092Z,31.25
2018-09-05T10:46:54.102Z,30.35
2018-09-05T10:47:54.141Z,29.27
2018-09-05T10:48:54.165Z,28.38
2018-09-05T10:49:54.196Z,27.90
2018-09-05T10:50:54.220Z,27.82
2018-09-05T10:52:15.276Z,27.57
2018-09-05T10:52:54.290Z,27.35
2018-09-05T10:53:54.331Z,27.03
2018-09-05T10:54:54.346Z,26.61
2018-09-05T10:55:54.386Z,26.19
2018-09-05T10:56:54.409Z,25.70
2018-09-05T10:58:15.630Z,25.59
2018-09-05T10:58:54.477Z,25.52
2018-09-05T10:59:54.509Z,25.46
2018-09-05T11:00:54.536Z,25.49
2018-09-05T11:01:54.571Z,25.33
2018-09-05T11:02:54.602Z,25.30
2018-09-05T11:04:15.654Z,25.14
2018-09-05T11:04:54.651Z,25.14
2018-09-05T11:05:54.684Z,25.07
2018-09-05T11:06:54.718Z,25.01
2018-09-05T11:07:54.751Z,25.18
2018-09-05T11:08:54.785Z,25.01
2018-09-05T11:10:15.844Z,24.97
2018-09-05T11:10:54.906Z,24.92
2018-09-05T11:11:54.875Z,24.82
2018-09-05T11:12:54.900Z,24.79
2018-09-05T11:13:54.935Z,24.86
2018-09-05T11:14:54.963Z,24.99
2018-09-05T11:16:16.036Z,25.03
2018-09-05T11:16:55.032Z,25.07
2018-09-05T11:17:55.058Z,25.00
2018-09-05T11:18:55.104Z,25.40
2018-09-05T11:19:55.111Z,25.18
2018-09-05T11:20:55.176Z,25.21
2018-09-05T11:22:16.188Z,25.11
2018-09-05T11:22:55.208Z,25.01
2018-09-05T11:23:55.224Z,25.06
2018-09-05T11:24:55.270Z,24.94
2018-09-05T11:25:55.316Z,25.04
2018-09-05T11:26:55.338Z,24.85
2018-09-05T11:28:16.384Z,24.74
2018-09-05T11:28:55.386Z,24.55
2018-09-05T11:29:55.425Z,24.51
2018-09-05T11:30:55.447Z,24.41
2018-09-05T11:31:55.485Z,24.40
2018-09-05T11:32:55.496Z,24.28
2018-09-05T11:34:16.545Z,24.19
2018-09-05T11:34:55.555Z,24.18
2018-09-05T11:35:55.585Z,24.18
2018-09-05T11:36:55.661Z,24.21
2018-09-05T11:37:55.657Z,24.28
2018-09-05T11:38:56.628Z,24.34
2018-09-05T11:40:16.733Z,24.28
2018-09-05T11:40:55.743Z,24.38
2018-09-05T11:41:55.766Z,24.22
2018-09-05T11:42:55.802Z,24.36
2018-09-05T11:43:55.826Z,24.32
2018-09-05T11:44:55.857Z,24.22
2018-09-05T11:46:16.909Z,24.26
2018-09-05T11:46:55.919Z,24.32
2018-09-05T11:47:55.950Z,24.31
2018-09-05T11:48:55.977Z,24.31
2018-09-05T11:49:56.015Z,24.37
2018-09-05T11:50:56.034Z,24.32
2018-09-05T11:52:17.083Z,24.40
2018-09-05T11:52:56.092Z,24.46
2018-09-05T11:53:56.126Z,24.53
2018-09-05T11:54:56.154Z,24.53
2018-09-05T11:55:56.191Z,24.53
2018-09-05T11:56:56.212Z,24.66
2018-09-05T11:58:17.354Z,24.69
2018-09-05T11:58:56.284Z,24.78
2018-09-05T11:59:56.313Z,24.62
2018-09-05T12:00:56.341Z,24.71
2018-09-05T12:01:56.373Z,24.68
2018-09-05T12:02:56.399Z,24.68
2018-09-05T12:04:17.448Z,24.71
2018-09-05T12:04:56.500Z,24.53
2018-09-05T12:05:56.483Z,24.68
2018-09-05T12:06:56.532Z,24.68
2018-09-05T12:07:56.534Z,24.77
2018-09-05T12:08:56.577Z,24.66
2018-09-05T12:10:17.614Z,24.63
2018-09-05T12:10:56.636Z,24.74
2018-09-05T12:11:56.667Z,24.69
2018-09-05T12:12:56.693Z,24.59
2018-09-05T12:13:56.717Z,24.61
2018-09-05T12:14:56.775Z,24.48
2018-09-05T12:16:17.791Z,24.47
2018-09-05T12:16:56.813Z,24.56
2018-09-05T12:17:56.852Z,24.51
2018-09-05T12:18:56.873Z,24.66
2018-09-05T12:19:56.906Z,24.55
2018-09-05T12:20:56.937Z,24.55
2018-09-05T12:22:17.979Z,24.55
2018-09-05T12:22:56.977Z,24.53
2018-09-05T12:23:57.012Z,24.51
2018-09-05T12:24:57.039Z,24.61
2018-09-05T12:25:57.069Z,24.66
2018-09-05T12:26:57.119Z,24.74
2018-09-05T12:28:18.147Z,24.94
2018-09-05T12:28:57.176Z,24.82
2018-09-05T12:29:57.285Z,24.86
2018-09-05T12:30:57.215Z,24.97
2018-09-05T12:31:57.250Z,25.01
2018-09-05T12:32:57.286Z,25.01
2018-09-05T12:34:18.325Z,24.96
2018-09-05T12:34:57.393Z,24.86
2018-09-05T12:35:57.413Z,24.84
2018-09-05T12:36:57.446Z,24.84
2018-09-05T12:37:57.438Z,24.69
2018-09-05T12:38:57.606Z,24.65
2018-09-05T12:40:18.501Z,24.53
2018-09-05T12:40:57.538Z,24.59
2018-09-05T12:41:57.547Z,24.58
2018-09-05T12:42:57.591Z,24.61
2018-09-05T12:43:57.620Z,24.53
2018-09-05T12:44:57.633Z,24.58
2018-09-05T12:46:18.698Z,24.53
2018-09-05T12:46:57.703Z,24.44
2018-09-05T12:47:57.762Z,24.34
2018-09-05T12:48:57.754Z,24.43
2018-09-05T12:49:57.798Z,24.38
2018-09-05T12:50:57.824Z,24.32
2018-09-05T12:52:18.872Z,24.29
2018-09-05T12:52:57.880Z,24.37